< < Back
Terminal Aerodrome Forecast


Current Version              Previous Versions:   1  2  3  4  5  6  7  8  9  

Terminal Aerodrome Forecast

311
FTUS42 KTAE 071735
TAFABY
TAF
KABY 071735Z 0718/0818 34011G20KT P6SM SKC
     FM072300 27004KT P6SM SKC
     FM081500 25012G22KT P6SM SCT250=

Latest METAR

630
SAUS70 KWBC 072200 RRA
MTRABY
METAR KABY 072153Z 31009KT 10SM CLR 14/M05 A3003 RMK AO2 SLP171
T01441050 $


USA.gov is the U.S. government's official web portal to all federal, state and local government web resources and services.